1919 NOT_NAMED (1919062S14128)


IBTrACS version v04r00. Visit IBTrACS website for data access.
Please direct all questions to the IBTrACS Q and A forum

Storm track - Intensity - Wind Radii - Intensity Data - Source Data - All data

Summary Information

Storm ID 1919062S14128
Start Mar 2 23Z
Landfall Mar 3 12Z, Mar 4 06Z, Mar 5 23Z, Mar 7 18Z
End Mar 8 01Z
ATCF IDs
Track status Best track data.

Storm track plot

Map of storm track

Intensity plots

No Intensity information for this storm


Radial wind information

No radial wind information for this storm


Position and Intensity Table

BASIN ISO_TIME_________ NATURE LAT LON
degrees north degrees east
SI 1919-03-02 23:30:00 NR -14.30 128.30
SI 1919-03-03 00:00:00 NR -14.34 128.33
SI 01:00:00 NR -14.31 128.05
SI 03:00:00 NR -14.42 128.08
SI 06:00:00 NR -14.57 128.18
SI 06:30:00 NR -14.57 128.12
SI 09:00:00 NR -14.72 128.32
SI 12:00:00 NR -14.88 128.57
SI 13:00:00 NR -14.92 128.65
SI 15:00:00 NR -15.00 128.82
SI 18:00:00 NR -15.10 129.06
SI 21:00:00 NR -15.15 129.29
SI 23:30:00 NR -15.15 129.45
SI 1919-03-04 00:00:00 NR -15.15 129.48
SI 01:00:00 NR -15.14 129.53
SI 03:00:00 NR -15.11 129.62
SI 06:00:00 NR -15.02 129.73
SI 09:00:00 NR -14.89 129.81
SI 12:00:00 NR -14.73 129.87
SI 13:00:00 NR -14.67 129.89
SI 15:00:00 NR -14.56 129.91
SI 18:00:00 NR -14.38 129.95
SI 21:00:00 NR -14.17 129.99
SI 23:30:00 NR -13.96 130.05
SI 1919-03-05 00:00:00 NR -13.92 130.06
SI 01:00:00 NR -13.82 130.09
SI 03:00:00 NR -13.60 130.17
SI 06:00:00 NR -13.24 130.31
SI 08:30:00 NR -12.92 130.45
SI 09:00:00 NR -12.86 130.48
SI 11:30:00 NR -12.55 130.65
SI 12:00:00 NR -12.50 130.69
SI 13:00:00 NR -12.38 130.77
SI 15:00:00 NR -12.13 130.97
SI 18:00:00 NR -11.77 131.31
SI 21:00:00 NR -11.50 131.68
SI 23:30:00 NR -11.37 131.97
SI 1919-03-06 00:00:00 NR -11.36 132.02
SI 01:00:00 NR -11.35 132.12
SI 03:00:00 NR -11.40 132.31
SI 06:00:00 NR -11.61 132.55
SI 09:00:00 NR -11.91 132.77
SI 11:30:00 NR -12.18 132.93
SI 12:00:00 NR -12.23 132.96
SI 13:00:00 NR -12.33 133.01
SI 15:00:00 NR -12.51 133.11
SI 18:00:00 NR -12.84 133.29
SI 21:00:00 NR -13.21 133.49
SI 23:30:00 NR -13.59 133.72
SI 1919-03-07 00:00:00 NR -13.91 133.92
SI 01:00:00 NR -14.00 134.00
SI 03:00:00 NR -14.13 134.24
SI 06:00:00 NR -14.26 134.71
SP 09:00:00 NR -14.31 135.25
SP 12:00:00 NR -14.31 135.81
SP 13:00:00 NR -14.30 136.00
SP 15:00:00 NR -14.27 136.36
SP 18:00:00 NR -14.21 136.87
SP 21:00:00 NR -14.12 137.37
SP 1919-03-08 00:00:00 NR -14.03 137.84
SP 01:00:00 NR -14.00 138.00

Source Information

Agency Information
USA
TOKYO
CMA
HKO
NEWDELHI
REUNION
BOM IDCKMSTM0S.csv:Line=331:unnamed
NADI
WELLINGTON
DS824
TD9636 cons_worldwide_trop_cyclone_18710101-19891231-006:Line=1060
TD9635
NEUMANN
MLC

All available IBTrACS Data

SEASON BASIN SUBBASIN ISO_TIME_________ NATURE LAT LON WMO AGENCY DIST2LAND LANDFALL IFLAG USA SSHS BOM LAT BOM LON TD9636 LAT TD9636 LON TD9636 STAGE STORM SPEED STORM DIR
Year degrees north degrees east km km 1 degrees north degrees east degrees north degrees east kts degrees
1919 SI WA 1919-03-02 23:30:00 NR -14.30 128.30 bom 46 46 ______O_______ -1 -14.30 128.30 6 132
1919 SI WA 1919-03-03 00:00:00 NR -14.34 128.33 46 31 ______P_______ -1 -14.34 128.33 10 268
1919 SI WA 01:00:00 NR -14.31 128.05 31 15 ______P___O___ -1 -14.41 128.40 -14.00 127.00 7 5 252
1919 SI WA 03:00:00 NR -14.42 128.08 24 11 ______P___P___ -1 -14.56 128.54 -14.13 127.16 7 4 155
1919 SI WA 06:00:00 NR -14.57 128.18 11 10 ______P___P___ -1 -14.77 128.76 -14.31 127.40 7 3 163
1919 SI WA 06:30:00 NR -14.57 128.12 bom 10 0 ______O___P___ -1 -14.80 128.80 -14.34 127.45 7 4 137
1919 SI WA 09:00:00 NR -14.72 128.32 10 0 ______P___P___ -1 -14.95 128.99 -14.49 127.65 7 6 125
1919 SI WA 12:00:00 NR -14.88 128.57 0 0 ______P___P___ -1 -15.10 129.23 -14.65 127.91 7 6 122
1919 SI WA 13:00:00 NR -14.92 128.65 0 0 ______P___O___ -1 -15.14 129.31 -14.70 128.00 7 5 118
1919 SI WA 15:00:00 NR -15.00 128.82 0 0 ______P___P___ -1 -15.22 129.46 -14.79 128.18 7 5 114
1919 SI WA 18:00:00 NR -15.10 129.06 0 0 ______P___P___ -1 -15.29 129.68 -14.90 128.45 7 5 108
1919 SI WA 21:00:00 NR -15.15 129.29 0 0 ______P___P___ -1 -15.32 129.87 -14.98 128.71 7 4 98
1919 SI WA 23:30:00 NR -15.15 129.45 bom 0 0 ______O___P___ -1 -15.30 130.00 -15.00 128.90 7 4 91
1919 SI WA 1919-03-04 00:00:00 NR -15.15 129.48 0 0 ______P___P___ -1 -15.30 130.02 -15.00 128.93 7 3 84
1919 SI WA 01:00:00 NR -15.14 129.53 0 0 ______P___O___ -1 -15.29 130.06 -15.00 129.00 7 3 75
1919 SI WA 03:00:00 NR -15.11 129.62 10 0 ______P___P___ -1 -15.25 130.13 -14.98 129.11 7 3 58
1919 SI WA 06:00:00 NR -15.02 129.73 0 0 ______P___P___ -1 -15.15 130.21 -14.90 129.25 7 3 39
1919 SI WA 09:00:00 NR -14.89 129.81 0 0 ______P___P___ -1 -15.00 130.25 -14.79 129.36 7 3 25
1919 SI WA 12:00:00 NR -14.73 129.87 0 0 ______P___P___ -1 -14.81 130.27 -14.65 129.46 7 4 19
1919 SI WA 13:00:00 NR -14.67 129.89 0 0 ______P___O___ -1 -14.74 130.27 -14.60 129.50 7 3 15
1919 SI WA 15:00:00 NR -14.56 129.91 0 0 ______P___P___ -1 -14.59 130.27 -14.54 129.56 7 4 14
1919 SI WA 18:00:00 NR -14.38 129.95 0 0 ______P___P___ -1 -14.34 130.25 -14.43 129.65 7 4 12
1919 SI WA 21:00:00 NR -14.17 129.99 0 0 ______P___P___ -1 -14.05 130.23 -14.29 129.76 7 5 13
1919 SI WA 23:30:00 NR -13.96 130.05 bom 0 0 ______O___P___ -1 -13.80 130.20 -14.13 129.90 7 5 14
1919 SI WA 1919-03-05 00:00:00 NR -13.92 130.06 0 0 ______P___P___ -1 -13.75 130.19 -14.09 129.93 7 6 16
1919 SI WA 01:00:00 NR -13.82 130.09 0 0 ______P___O___ -1 -13.64 130.18 -14.00 130.00 7 7 19
1919 SI WA 03:00:00 NR -13.60 130.17 0 0 ______P___P___ -1 -13.42 130.16 -13.79 130.18 7 7 20
1919 SI WA 06:00:00 NR -13.24 130.31 0 0 ______P___P___ -1 -13.07 130.12 -13.40 130.50 7 8 22
1919 SI WA 08:30:00 NR -12.92 130.45 bom 0 0 ______O___P___ -1 -12.80 130.10 -13.04 130.81 7 8 24
1919 SI WA 09:00:00 NR -12.86 130.48 0 0 ______P___P___ -1 -12.75 130.10 -12.97 130.87 7 8 28
1919 SI WA 11:30:00 NR -12.55 130.65 bom 0 0 ______O___P___ -1 -12.50 130.10 -12.61 131.20 7 8 29
1919 SI WA 12:00:00 NR -12.50 130.69 0 0 ______P___P___ -1 -12.45 130.11 -12.54 131.27 7 9 34
1919 SI WA 13:00:00 NR -12.38 130.77 0 0 ______P___O___ -1 -12.36 130.15 -12.40 131.40 7 9 37
1919 SI WA 15:00:00 NR -12.13 130.97 22 10 ______P___P___ -1 -12.17 130.26 -12.08 131.68 7 10 41
1919 SI WA 18:00:00 NR -11.77 131.31 11 0 ______P___P___ -1 -11.94 130.51 -11.61 132.12 7 9 48
1919 SI WA 21:00:00 NR -11.50 131.68 21 0 ______P___P___ -1 -11.77 130.82 -11.23 132.54 7 8 58
1919 SI WA 23:30:00 NR -11.37 131.97 bom 0 0 ______O___P___ -1 -11.70 131.10 -11.04 132.84 7 7 67
1919 SI WA 1919-03-06 00:00:00 NR -11.36 132.02 0 0 ______P___P___ -1 -11.69 131.15 -11.02 132.90 7 6 82
1919 SI WA 01:00:00 NR -11.35 132.12 0 0 ______P___O___ -1 -11.69 131.25 -11.00 133.00 7 6 100
1919 SI WA 03:00:00 NR -11.40 132.31 0 0 ______P___P___ -1 -11.73 131.45 -11.08 133.16 7 6 122
1919 SI WA 06:00:00 NR -11.61 132.55 0 0 ______P___P___ -1 -11.83 131.77 -11.39 133.34 7 7 138
1919 SI WA 09:00:00 NR -11.91 132.77 0 0 ______P___P___ -1 -11.98 132.07 -11.84 133.47 7 7 147
1919 SI WA 11:30:00 NR -12.18 132.93 bom 0 0 ______O___P___ -1 -12.10 132.30 -12.26 133.55 7 7 151
1919 SI WA 12:00:00 NR -12.23 132.96 0 0 ______P___P___ -1 -12.12 132.34 -12.34 133.57 7 7 154
1919 SI WA 13:00:00 NR -12.33 133.01 0 0 ______P___O___ -1 -12.17 132.42 -12.50 133.60 7 6 152
1919 SI WA 15:00:00 NR -12.51 133.11 0 0 ______P___P___ -1 -12.24 132.58 -12.78 133.64 7 7 152
1919 SI WA 18:00:00 NR -12.84 133.29 0 0 ______P___P___ -1 -12.35 132.78 -13.20 133.68 7 8 152
1919 SI WA 21:00:00 NR -13.21 133.49 0 0 ______P___P___ -1 -12.43 132.96 -13.59 133.75 7 10 151
1919 SI WA 23:30:00 NR -13.59 133.72 bom 0 0 ______O___P___ -1 -12.50 133.10 -13.87 133.88 7 17 150
1919 SI WA 1919-03-07 00:00:00 NR -13.91 133.92 0 0 __________P___ -1 -13.91 133.92 7 20 147
1919 SI WA 01:00:00 NR -14.00 134.00 0 0 __________O___ -1 -14.00 134.00 7 8 125
1919 SI WA 03:00:00 NR -14.13 134.24 0 0 __________P___ -1 -14.13 134.24 7 9 111
1919 SI WA 06:00:00 NR -14.26 134.71 0 0 __________P___ -1 -14.26 134.71 7 10 100
1919 SP EA 09:00:00 NR -14.31 135.25 0 0 __________P___ -1 -14.31 135.25 7 11 93
1919 SP EA 12:00:00 NR -14.31 135.81 10 10 __________P___ -1 -14.31 135.81 7 11 89
1919 SP EA 13:00:00 NR -14.30 136.00 15 11 __________O___ -1 -14.30 136.00 7 11 86
1919 SP EA 15:00:00 NR -14.27 136.36 11 0 __________P___ -1 -14.27 136.36 7 10 84
1919 SP EA 18:00:00 NR -14.21 136.87 0 0 __________P___ -1 -14.21 136.87 7 10 81
1919 SP EA 21:00:00 NR -14.12 137.37 48 48 __________P___ -1 -14.12 137.37 7 10 79
1919 SP EA 1919-03-08 00:00:00 NR -14.03 137.84 92 102 __________P___ -1 -14.03 137.84 7 9 79
1919 SP EA 01:00:00 NR -14.00 138.00 112 __________O___ -1 -14.00 138.00 7 9 78